Time;durP1;ratioP1;P1;durP2;ratioP2;P2;SDS_P1;SDS_P2;PMS_P1;PMS_P2;Temp;Humidity;BMP_temperature;BMP_pressure;BME280_temperature;BME280_humidity;BME280_pressure;Samples;Min_cycle;Max_cycle;Signal;HPM_P1;HPM_P2
2022/01/11 00:00:41;;;;;;;14.27;7.35;;;-3.70;94.20;;;;;;5075400;28;20020;-78
2022/01/11 00:03:08;;;;;;;17.90;10.05;;;-3.70;94.20;;;;;;5075094;28;20056;-78
2022/01/11 00:05:49;;;;;;;14.48;8.88;;;-3.70;94.50;;;;;;5076157;28;20094;-78
2022/01/11 00:08:15;;;;;;;14.82;8.20;;;-3.80;94.50;;;;;;5076178;28;20130;-79
2022/01/11 00:10:52;;;;;;;18.17;8.15;;;-3.80;94.30;;;;;;5075478;28;20027;-78
2022/01/11 00:13:20;;;;;;;16.60;8.20;;;-3.90;94.10;;;;;;5075548;28;20032;-79
2022/01/11 00:15:47;;;;;;;15.60;9.18;;;-4.00;94.10;;;;;;5076795;28;20021;-79
2022/01/11 00:18:14;;;;;;;13.32;6.80;;;-4.00;94.30;;;;;;5076277;28;20421;-77
2022/01/11 00:20:40;;;;;;;14.57;7.60;;;-4.00;94.60;;;;;;5075587;28;20169;-79
2022/01/11 00:25:36;;;;;;;11.30;7.43;;;-4.10;94.20;;;;;;5095572;28;20036;-80
2022/01/11 00:28:03;;;;;;;13.77;7.65;;;-4.10;94.40;;;;;;5095261;28;20027;-78
2022/01/11 00:30:33;;;;;;;14.68;8.18;;;-4.10;94.30;;;;;;5095007;28;20103;-78
2022/01/11 00:33:03;;;;;;;15.70;7.38;;;-4.10;94.50;;;;;;5094926;28;20035;-78
2022/01/11 00:35:39;;;;;;;14.00;8.18;;;-4.20;94.50;;;;;;5095545;28;20397;-79
2022/01/11 00:38:06;;;;;;;12.07;7.72;;;-4.20;94.40;;;;;;5095144;28;20028;-78
2022/01/11 00:40:32;;;;;;;12.07;7.28;;;-4.20;94.50;;;;;;5096515;28;20024;-78
2022/01/11 00:42:59;;;;;;;13.50;6.53;;;-4.20;94.20;;;;;;5095881;28;20036;-78
2022/01/11 00:45:27;;;;;;;12.68;7.53;;;-4.20;94.20;;;;;;5097384;28;20128;-79
2022/01/11 00:47:54;;;;;;;10.68;7.18;;;-4.20;94.10;;;;;;5094208;28;20160;-76
2022/01/11 00:50:20;;;;;;;12.18;7.82;;;-4.30;94.40;;;;;;5076423;28;20021;-78
2022/01/11 00:52:47;;;;;;;21.33;7.70;;;-4.30;94.10;;;;;;5094937;28;20043;-79
2022/01/11 00:55:13;;;;;;;12.90;7.40;;;-4.30;94.30;;;;;;5094603;28;20042;-78
2022/01/11 00:57:39;;;;;;;9.82;6.70;;;-4.30;94.30;;;;;;5094559;28;20024;-79
2022/01/11 01:00:11;;;;;;;14.32;7.18;;;-4.30;94.40;;;;;;5093776;28;20119;-78
2022/01/11 01:02:38;;;;;;;15.02;7.65;;;-4.30;94.30;;;;;;5076087;28;20428;-79
2022/01/11 01:05:04;;;;;;;10.40;7.15;;;-4.30;94.30;;;;;;5094825;28;20028;-79
2022/01/11 01:07:30;;;;;;;12.23;8.18;;;-4.40;94.20;;;;;;5094491;28;20066;-80
2022/01/11 01:10:06;;;;;;;12.73;6.40;;;-4.40;94.20;;;;;;5094433;28;20059;-79
2022/01/11 01:12:33;;;;;;;17.30;10.43;;;-4.40;94.20;;;;;;5094196;28;20023;-79
2022/01/11 01:15:00;;;;;;;12.70;7.47;;;-4.50;94.20;;;;;;5094202;28;20028;-80
2022/01/11 01:17:26;;;;;;;18.52;8.45;;;-4.50;94.30;;;;;;5076113;28;20032;-78
2022/01/11 01:19:52;;;;;;;11.18;6.65;;;-4.50;94.50;;;;;;5094218;28;20024;-78
2022/01/11 01:22:18;;;;;;;16.42;8.35;;;-4.50;94.70;;;;;;5093964;28;20099;-79
2022/01/11 01:24:46;;;;;;;16.35;8.05;;;-4.50;94.70;;;;;;5093986;28;20152;-80
2022/01/11 01:27:12;;;;;;;;;;;-4.50;94.70;;;;;;5094597;28;20016;-79
2022/01/11 01:29:40;;;;;;;15.05;7.65;;;-4.50;94.70;;;;;;5094069;28;19964;-81
2022/01/11 01:32:07;;;;;;;16.90;7.63;;;-4.60;94.50;;;;;;5094411;28;20022;-79
2022/01/11 01:34:33;;;;;;;12.13;6.15;;;-4.60;94.70;;;;;;5099623;28;20043;-77
2022/01/11 01:36:59;;;;;;;15.68;7.85;;;-4.60;94.80;;;;;;5108365;28;20020;-78
2022/01/11 01:39:25;;;;;;;13.60;7.18;;;-4.60;94.60;;;;;;5098388;28;20032;-78
2022/01/11 01:41:52;;;;;;;15.00;6.85;;;-4.60;94.40;;;;;;5075793;28;20023;-78
2022/01/11 01:44:18;;;;;;;20.58;7.75;;;-4.70;94.50;;;;;;5094634;28;20084;-78
2022/01/11 01:46:44;;;;;;;14.10;7.20;;;-4.60;94.60;;;;;;5093740;28;20107;-78
2022/01/11 01:49:16;;;;;;;14.32;7.55;;;-4.60;94.60;;;;;;5093565;28;20052;-80
2022/01/11 01:51:42;;;;;;;11.07;5.90;;;-4.60;94.60;;;;;;5094070;28;20111;-78
2022/01/11 01:54:09;;;;;;;16.55;9.77;;;-4.60;94.50;;;;;;5094538;28;20052;-80
2022/01/11 01:56:35;;;;;;;11.57;6.32;;;-4.60;94.10;;;;;;5095041;28;20388;-78
2022/01/11 01:59:01;;;;;;;11.18;6.90;;;-4.70;94.00;;;;;;5094145;28;20036;-77
2022/01/11 02:01:27;;;;;;;10.38;6.25;;;-4.70;93.60;;;;;;5093942;28;20028;-78
2022/01/11 02:03:53;;;;;;;9.32;5.80;;;-4.80;93.80;;;;;;5093963;28;20497;-78
2022/01/11 02:06:20;;;;;;;10.10;6.38;;;-4.80;94.10;;;;;;5093094;28;20162;-79
2022/01/11 02:08:48;;;;;;;13.13;6.78;;;-4.80;94.00;;;;;;5093489;28;20028;-78
2022/01/11 02:11:17;;;;;;;11.00;6.13;;;-4.90;93.60;;;;;;5093597;28;20043;-78
2022/01/11 02:13:45;;;;;;;9.68;6.05;;;-4.90;93.40;;;;;;5093406;28;20415;-79
2022/01/11 02:16:12;;;;;;;12.63;6.03;;;-4.90;93.60;;;;;;5092959;28;20032;-78
2022/01/11 02:18:38;;;;;;;12.27;6.55;;;-4.90;93.80;;;;;;5092830;28;20023;-78
2022/01/11 02:21:04;;;;;;;13.20;7.50;;;-5.00;93.80;;;;;;5093128;28;20032;-79
2022/01/11 02:23:30;;;;;;;8.20;5.68;;;-5.00;93.80;;;;;;5094474;28;20036;-77
2022/01/11 02:25:56;;;;;;;11.13;6.65;;;-4.90;93.90;;;;;;5102724;28;20062;-78
2022/01/11 02:28:24;;;;;;;12.65;6.57;;;-4.90;93.60;;;;;;5098491;28;20026;-78
2022/01/11 02:30:50;;;;;;;;;;;-4.90;93.40;;;;;;5075480;28;20032;-77
2022/01/11 02:33:32;;;;;;;8.43;4.68;;;-5.00;93.10;;;;;;5093063;28;20383;-78
2022/01/11 02:36:00;;;;;;;12.57;6.40;;;-5.00;93.30;;;;;;5072255;28;20028;-79
2022/01/11 02:38:25;;;;;;;;;;;-5.10;92.70;;;;;;5072945;28;20025;-77
2022/01/11 02:40:51;;;;;;;11.38;5.38;;;-5.10;92.80;;;;;;5084291;28;20288;-78
2022/01/11 02:43:18;;;;;;;10.38;5.82;;;-5.20;93.00;;;;;;5092693;28;20055;-80
2022/01/11 02:45:44;;;;;;;10.88;6.90;;;-5.20;93.30;;;;;;5075258;28;20107;-78
2022/01/11 02:48:10;;;;;;;12.05;5.75;;;-5.20;93.50;;;;;;5092603;28;20099;-79
2022/01/11 02:50:36;;;;;;;12.35;7.10;;;-5.20;93.60;;;;;;5092625;28;20024;-77
2022/01/11 02:53:02;;;;;;;8.68;5.20;;;-5.10;93.50;;;;;;5093600;28;20046;-78
2022/01/11 02:55:28;;;;;;;11.90;5.28;;;-5.10;93.40;;;;;;5092595;28;20024;-78
2022/01/11 02:57:55;;;;;;;8.80;6.53;;;-5.10;92.90;;;;;;5092974;28;20439;-79
2022/01/11 03:00:23;;;;;;;10.43;5.75;;;-5.10;92.70;;;;;;5094151;28;20020;-77
2022/01/11 03:02:49;;;;;;;8.35;4.90;;;-5.10;92.80;;;;;;5093078;28;20081;-78
2022/01/11 03:05:15;;;;;;;8.43;5.95;;;-5.10;92.70;;;;;;5092823;28;20042;-77
2022/01/11 03:07:42;;;;;;;7.28;5.03;;;-5.20;92.90;;;;;;5092435;28;20020;-78
2022/01/11 03:10:31;;;;;;;10.80;6.03;;;-5.10;92.80;;;;;;5092653;28;20016;-79
2022/01/11 03:12:56;;;;;;;9.02;4.95;;;-5.10;92.70;;;;;;5096590;28;20040;-79
2022/01/11 03:15:22;;;;;;;13.07;7.38;;;-5.10;92.70;;;;;;5097133;28;20043;-78
2022/01/11 03:17:48;;;;;;;10.32;5.97;;;-5.10;92.20;;;;;;5097978;28;20024;-78
2022/01/11 03:20:14;;;;;;;11.25;5.65;;;-5.20;92.00;;;;;;5097248;28;20138;-78
2022/01/11 03:22:39;;;;;;;13.65;7.00;;;-5.20;92.30;;;;;;5097057;28;20057;-79
2022/01/11 03:25:07;;;;;;;8.30;5.55;;;-5.30;92.40;;;;;;5081850;28;20040;-78
2022/01/11 03:27:33;;;;;;;;;;;-5.30;92.40;;;;;;5099881;28;20034;-80
2022/01/11 03:29:58;;;;;;;8.25;4.95;;;-5.30;92.30;;;;;;5108929;28;19987;-81
2022/01/11 03:32:24;;;;;;;7.90;4.82;;;-5.40;92.30;;;;;;5102640;28;20028;-78
2022/01/11 03:34:50;;;;;;;8.73;4.47;;;-5.50;92.20;;;;;;5102985;28;20064;-78
2022/01/11 03:37:18;;;;;;;8.25;6.10;;;-5.50;92.10;;;;;;5097489;28;20057;-80
2022/01/11 03:39:45;;;;;;;8.18;4.18;;;-5.50;92.30;;;;;;5097060;28;20020;-79
2022/01/11 03:42:11;;;;;;;6.47;3.83;;;-5.50;92.40;;;;;;5095734;28;20040;-78
2022/01/11 03:44:36;;;;;;;9.65;4.22;;;-5.50;92.60;;;;;;5095984;28;20384;-79
2022/01/11 03:47:03;;;;;;;9.80;5.35;;;-5.50;92.80;;;;;;5095708;28;20023;-79
2022/01/11 03:49:29;;;;;;;7.13;4.72;;;-5.60;92.40;;;;;;5096001;28;20024;-80
2022/01/11 03:51:55;;;;;;;9.10;4.68;;;-5.60;92.30;;;;;;5095778;28;20031;-79
2022/01/11 03:54:43;;;;;;;6.40;3.87;;;-5.60;92.10;;;;;;5096142;28;20020;-79
2022/01/11 03:57:09;;;;;;;7.18;4.88;;;-5.60;92.20;;;;;;5097013;28;20522;-79
2022/01/11 03:59:35;;;;;;;8.55;5.18;;;-5.70;91.70;;;;;;5110618;28;20036;-79
2022/01/11 04:02:01;;;;;;;12.60;7.63;;;-5.70;92.00;;;;;;5106967;28;20132;-79
2022/01/11 04:04:27;;;;;;;10.00;4.95;;;-5.70;92.10;;;;;;5095917;28;20038;-78
2022/01/11 04:06:53;;;;;;;10.82;5.35;;;-5.70;92.10;;;;;;5095924;28;20024;-77
2022/01/11 04:09:19;;;;;;;10.15;6.03;;;-5.70;92.00;;;;;;5095992;28;20036;-80
2022/01/11 04:11:45;;;;;;;7.38;4.93;;;-5.80;91.90;;;;;;5096067;28;20542;-80
2022/01/11 04:14:11;;;;;;;8.27;4.90;;;-5.80;92.00;;;;;;5077919;28;20070;-79
2022/01/11 04:16:37;;;;;;;7.93;4.82;;;-5.80;91.40;;;;;;5096269;28;20091;-80
2022/01/11 04:19:03;;;;;;;8.75;5.07;;;-5.90;91.50;;;;;;5095558;28;20027;-79
2022/01/11 04:21:29;;;;;;;7.60;5.00;;;-5.90;91.50;;;;;;5095658;28;20076;-80
2022/01/11 04:23:55;;;;;;;10.48;5.30;;;-5.90;91.90;;;;;;5094240;28;20132;-80
2022/01/11 04:26:21;;;;;;;12.70;7.15;;;-5.90;91.90;;;;;;5095340;28;20082;-80
2022/01/11 04:28:47;;;;;;;10.02;5.47;;;-5.90;91.70;;;;;;5096368;28;20044;-79
2022/01/11 04:31:13;;;;;;;9.80;5.97;;;-6.00;91.70;;;;;;5081456;28;20507;-78
2022/01/11 04:33:43;;;;;;;8.13;5.10;;;-6.00;91.70;;;;;;5105490;28;20020;-77
2022/01/11 04:36:10;;;;;;;8.23;5.43;;;-6.00;91.80;;;;;;5099337;28;20023;-80
2022/01/11 04:38:36;;;;;;;10.43;5.57;;;-6.00;91.70;;;;;;5077246;28;20035;-78
2022/01/11 04:41:02;;;;;;;10.75;5.57;;;-6.10;91.20;;;;;;5094778;28;20067;-78
2022/01/11 04:43:28;;;;;;;10.43;5.60;;;-6.10;91.50;;;;;;5094929;28;20080;-79
2022/01/11 04:45:53;;;;;;;10.38;5.68;;;-6.20;91.50;;;;;;5094868;28;20467;-79
2022/01/11 04:48:19;;;;;;;8.07;5.13;;;-6.20;91.60;;;;;;5094927;28;20031;-80
2022/01/11 04:50:46;;;;;;;9.13;4.50;;;-6.20;91.60;;;;;;5094733;28;20389;-81
2022/01/11 04:53:12;;;;;;;10.57;5.45;;;-6.30;91.10;;;;;;5095078;28;20027;-80
2022/01/11 04:55:38;;;;;;;8.40;4.38;;;-6.30;91.20;;;;;;5095070;28;20358;-78
2022/01/11 04:58:03;;;;;;;7.35;4.68;;;-6.40;91.00;;;;;;5099056;28;20031;-79
2022/01/11 05:00:29;;;;;;;8.68;4.35;;;-6.40;90.90;;;;;;5096058;28;20047;-81
2022/01/11 05:02:59;;;;;;;8.77;4.45;;;-6.50;91.30;;;;;;5094328;28;20028;-80
2022/01/11 05:05:29;;;;;;;6.45;4.57;;;-6.50;91.10;;;;;;5094521;28;20050;-79
2022/01/11 05:07:56;;;;;;;8.15;4.70;;;-6.50;91.10;;;;;;5094493;28;20024;-80
2022/01/11 05:10:23;;;;;;;9.50;5.53;;;-6.50;91.30;;;;;;5094530;28;20111;-79
2022/01/11 05:12:52;;;;;;;6.35;4.35;;;-6.50;91.50;;;;;;5076179;28;20373;-78
2022/01/11 05:15:18;;;;;;;7.85;4.40;;;-6.50;91.80;;;;;;5075827;28;20028;-78
2022/01/11 05:17:44;;;;;;;8.43;5.68;;;-6.50;91.70;;;;;;5094082;28;20026;-81
2022/01/11 05:20:10;;;;;;;8.80;5.18;;;-6.50;91.00;;;;;;5094219;28;20477;-78
2022/01/11 05:22:38;;;;;;;10.65;6.32;;;-6.50;90.90;;;;;;5076053;28;20028;-79
2022/01/11 05:25:04;;;;;;;8.55;5.90;;;-6.60;90.90;;;;;;5097507;28;20028;-79
2022/01/11 05:27:30;;;;;;;9.20;4.95;;;-6.70;90.80;;;;;;5076786;28;20166;-80
2022/01/11 05:29:56;;;;;;;12.88;7.60;;;-6.70;90.80;;;;;;5093999;28;20062;-79
2022/01/11 05:32:22;;;;;;;10.50;6.20;;;-6.80;90.70;;;;;;5093874;28;20028;-79
2022/01/11 05:34:48;;;;;;;8.57;5.43;;;-6.90;90.90;;;;;;5093301;28;20031;-79
2022/01/11 05:37:14;;;;;;;9.20;5.22;;;-6.90;91.10;;;;;;5094023;28;20012;-79
2022/01/11 05:39:40;;;;;;;10.13;6.43;;;-6.90;91.00;;;;;;5087167;28;20091;-79
2022/01/11 05:42:06;;;;;;;8.23;5.45;;;-6.90;91.10;;;;;;5090572;28;20042;-80
2022/01/11 05:44:33;;;;;;;13.73;4.90;;;-6.90;91.20;;;;;;5094093;28;20036;-78
2022/01/11 05:46:59;;;;;;;10.50;7.05;;;-7.00;91.00;;;;;;5076944;28;20078;-78
2022/01/11 05:49:25;;;;;;;8.18;5.30;;;-7.00;91.20;;;;;;5074228;28;20024;-76
2022/01/11 05:51:51;;;;;;;8.35;4.88;;;-7.00;91.30;;;;;;5073323;28;20028;-79
2022/01/11 05:54:17;;;;;;;6.78;4.78;;;-6.90;91.20;;;;;;5073260;28;20028;-79
2022/01/11 05:56:43;;;;;;;8.50;5.85;;;-7.00;91.20;;;;;;5073213;28;20130;-80
2022/01/11 05:59:08;;;;;;;9.88;6.05;;;-7.00;90.70;;;;;;5073118;28;20024;-80
2022/01/11 06:01:35;;;;;;;8.45;5.30;;;-7.00;90.90;;;;;;5093587;28;20039;-80
2022/01/11 06:04:01;;;;;;;5.03;3.75;;;-7.00;91.00;;;;;;5093475;28;20058;-80
2022/01/11 06:06:27;;;;;;;9.57;5.20;;;-7.00;90.60;;;;;;5093795;28;20523;-81
2022/01/11 06:08:52;;;;;;;7.13;4.82;;;-7.10;89.20;;;;;;5093450;28;20453;-79
2022/01/11 06:11:18;;;;;;;15.43;5.63;;;-7.20;90.10;;;;;;5075615;28;20028;-81
2022/01/11 06:13:44;;;;;;;6.18;3.75;;;-7.20;90.20;;;;;;5075745;28;20024;-80
2022/01/11 06:16:10;;;;;;;9.20;4.40;;;-7.30;89.90;;;;;;5074521;28;20023;-80
2022/01/11 06:18:36;;;;;;;9.25;4.60;;;-7.40;90.10;;;;;;5094006;28;20016;-80
2022/01/11 06:21:03;;;;;;;8.00;4.20;;;-7.40;90.20;;;;;;5094283;28;20020;-80
2022/01/11 06:23:29;;;;;;;13.68;5.10;;;-7.40;90.10;;;;;;5079088;28;20038;-78
2022/01/11 06:25:55;;;;;;;8.75;4.60;;;-7.50;90.10;;;;;;5095335;28;20110;-81
2022/01/11 06:28:20;;;;;;;14.00;6.45;;;-7.50;90.40;;;;;;5092839;28;20087;-80
2022/01/11 06:30:47;;;;;;;7.78;4.35;;;-7.60;90.30;;;;;;5092811;28;20032;-80
2022/01/11 06:33:14;;;;;;;12.88;5.20;;;-7.50;90.40;;;;;;5092910;28;20060;-81
2022/01/11 06:35:39;;;;;;;7.70;4.80;;;-7.60;90.40;;;;;;5097019;28;20028;-82
2022/01/11 06:38:05;;;;;;;4.18;3.20;;;-7.60;90.20;;;;;;5097999;28;20103;-80
2022/01/11 06:40:31;;;;;;;6.90;4.80;;;-7.70;89.40;;;;;;5095446;28;20027;-80
2022/01/11 06:42:57;;;;;;;8.00;4.90;;;-7.70;89.70;;;;;;5099170;28;20063;-79
2022/01/11 06:45:24;;;;;;;5.90;3.13;;;-7.80;89.20;;;;;;5098157;28;20031;-83
2022/01/11 06:47:50;;;;;;;5.10;3.85;;;-7.90;90.00;;;;;;5095029;28;20045;-78
2022/01/11 06:50:18;;;;;;;5.32;3.38;;;-7.90;90.10;;;;;;5093675;28;20489;-79
2022/01/11 06:52:44;;;;;;;10.48;4.40;;;-8.00;90.10;;;;;;5074209;28;20020;-80
2022/01/11 06:55:11;;;;;;;15.55;5.45;;;-8.10;89.80;;;;;;5064183;28;20493;-82
2022/01/11 06:57:38;;;;;;;16.63;6.40;;;-8.20;89.80;;;;;;5072937;28;20032;-80
2022/01/11 07:00:07;;;;;;;8.90;4.68;;;-8.20;90.30;;;;;;5089254;28;20120;-82
2022/01/11 07:02:33;;;;;;;6.68;3.75;;;-8.20;90.40;;;;;;5080055;28;20024;-82
2022/01/11 07:04:59;;;;;;;13.48;4.75;;;-8.20;90.50;;;;;;5094474;28;20081;-79
2022/01/11 07:07:24;;;;;;;9.73;5.45;;;-8.10;90.20;;;;;;5096242;28;20031;-82
2022/01/11 07:09:51;;;;;;;7.15;4.32;;;-8.10;89.10;;;;;;5075267;28;20028;-84
2022/01/11 07:12:16;;;;;;;12.80;4.57;;;-8.20;88.50;;;;;;5092856;28;20099;-82
2022/01/11 07:14:42;;;;;;;9.10;5.60;;;-8.20;89.40;;;;;;5093286;28;20048;-82
2022/01/11 07:17:08;;;;;;;8.52;6.25;;;-8.20;88.70;;;;;;5093868;28;20031;-80
2022/01/11 07:19:34;;;;;;;16.08;5.45;;;-8.20;89.00;;;;;;5087793;28;20031;-81
2022/01/11 07:22:00;;;;;;;12.15;5.60;;;-8.30;89.50;;;;;;5058419;28;20021;-81
2022/01/11 07:24:29;;;;;;;7.00;5.63;;;-8.30;90.10;;;;;;5080170;28;20037;-84
2022/01/11 07:26:55;;;;;;;8.73;4.40;;;-8.20;89.40;;;;;;5056128;28;20037;-83
2022/01/11 07:29:21;;;;;;;7.25;4.55;;;-8.20;88.30;;;;;;5055467;28;20481;-85
2022/01/11 07:31:47;;;;;;;7.05;3.78;;;-8.20;87.60;;;;;;5075170;28;20025;-84
2022/01/11 07:34:13;;;;;;;5.88;3.55;;;-8.30;87.70;;;;;;5087234;28;20024;-83
2022/01/11 07:36:41;;;;;;;8.13;4.25;;;-8.30;88.40;;;;;;5097327;28;20024;-84
2022/01/11 07:39:07;;;;;;;7.65;4.20;;;-8.30;88.70;;;;;;5096919;28;20059;-83
2022/01/11 07:41:33;;;;;;;8.67;4.17;;;-8.30;88.80;;;;;;5075712;28;20488;-84
2022/01/11 07:43:59;;;;;;;8.68;4.35;;;-8.30;88.70;;;;;;5092691;28;20087;-82
2022/01/11 07:46:25;;;;;;;12.43;4.68;;;-8.30;89.20;;;;;;5075102;28;20035;-81
2022/01/11 07:48:52;;;;;;;9.52;5.07;;;-8.30;88.20;;;;;;5093404;28;20035;-81
2022/01/11 07:51:18;;;;;;;11.52;4.43;;;-8.40;87.70;;;;;;5075027;28;20020;-83
2022/01/11 07:53:44;;;;;;;6.78;3.97;;;-8.40;87.10;;;;;;5087270;28;20493;-84
2022/01/11 07:56:10;;;;;;;9.35;5.45;;;-8.40;88.00;;;;;;5072379;28;20083;-83
2022/01/11 07:58:36;;;;;;;6.32;4.10;;;-8.30;88.60;;;;;;5076001;28;20382;-82
2022/01/11 08:01:03;;;;;;;8.90;5.57;;;-8.30;88.70;;;;;;5076402;28;20109;-81
2022/01/11 08:03:28;;;;;;;7.50;3.93;;;-8.30;87.90;;;;;;5076756;28;20039;-84
2022/01/11 08:05:54;;;;;;;8.80;4.72;;;-8.30;88.00;;;;;;5076262;28;20269;-82
2022/01/11 08:08:20;;;;;;;9.13;4.70;;;-8.30;89.00;;;;;;5076327;28;20032;-83
2022/01/11 08:10:46;;;;;;;7.80;4.60;;;-8.20;89.40;;;;;;5064494;28;20100;-83
2022/01/11 08:13:11;;;;;;;8.40;4.72;;;-8.10;89.30;;;;;;5097321;28;20020;-84
2022/01/11 08:15:37;;;;;;;6.50;4.40;;;-8.10;88.90;;;;;;5078949;28;20484;-83
2022/01/11 08:18:08;;;;;;;10.68;6.18;;;-8.00;89.10;;;;;;5097055;28;20024;-83
2022/01/11 08:20:34;;;;;;;7.40;4.68;;;-7.90;88.70;;;;;;5085433;28;20046;-81
2022/01/11 08:23:00;;;;;;;8.95;5.28;;;-7.90;87.00;;;;;;5107355;28;20028;-84
2022/01/11 08:25:26;;;;;;;8.90;5.28;;;-7.90;86.20;;;;;;5093731;28;20062;-82
2022/01/11 08:27:52;;;;;;;19.52;8.00;;;-7.90;85.70;;;;;;5077567;28;20021;-84
2022/01/11 08:30:18;;;;;;;6.00;4.50;;;-7.90;85.20;;;;;;5076742;28;20021;-82
2022/01/11 08:32:44;;;;;;;9.23;4.75;;;-8.00;84.50;;;;;;5085785;28;20385;-83
2022/01/11 08:35:10;;;;;;;4.88;4.13;;;-8.00;84.90;;;;;;5096816;28;20020;-83
2022/01/11 08:37:36;;;;;;;7.78;3.95;;;-8.00;84.70;;;;;;5096063;28;20055;-84
2022/01/11 08:40:03;;;;;;;6.57;4.32;;;-8.10;84.80;;;;;;5079628;28;20024;-85
2022/01/11 08:42:29;;;;;;;;;;;-8.10;85.20;;;;;;5084782;28;20066;-82
2022/01/11 08:44:56;;;;;;;18.00;4.47;;;-8.10;84.80;;;;;;5087879;28;19919;-83
2022/01/11 08:47:22;;;;;;;10.85;5.95;;;-8.20;85.10;;;;;;5111238;28;20123;-84
2022/01/11 08:49:48;;;;;;;10.55;5.28;;;-8.20;84.80;;;;;;5084807;28;20453;-84
2022/01/11 08:52:14;;;;;;;15.10;6.03;;;-8.20;84.90;;;;;;5104294;28;20035;-83
2022/01/11 08:54:40;;;;;;;8.60;5.03;;;-8.20;84.40;;;;;;5112894;28;20107;-84
2022/01/11 08:57:06;;;;;;;20.08;5.78;;;-8.20;84.60;;;;;;5106808;28;20031;-83
2022/01/11 08:59:32;;;;;;;9.63;4.60;;;-8.20;84.90;;;;;;5099003;28;20487;-82
2022/01/11 09:02:01;;;;;;;8.65;4.68;;;-8.10;85.00;;;;;;5096028;28;20043;-83
2022/01/11 09:04:27;;;;;;;5.72;3.40;;;-8.00;84.10;;;;;;5096798;28;20063;-83
2022/01/11 09:06:57;;;;;;;6.32;3.80;;;-8.00;83.90;;;;;;5077690;28;20020;-84
2022/01/11 09:09:24;;;;;;;10.15;3.95;;;-7.90;84.80;;;;;;5095290;28;20444;-84
2022/01/11 09:11:51;;;;;;;12.18;4.28;;;-7.80;84.80;;;;;;5095003;28;20081;-85
2022/01/11 09:14:17;;;;;;;12.60;4.45;;;-7.80;84.40;;;;;;5096627;28;20084;-82
2022/01/11 09:16:43;;;;;;;9.32;4.28;;;-7.80;82.70;;;;;;5096263;28;20095;-84
2022/01/11 09:19:11;;;;;;;8.20;4.78;;;-7.70;82.70;;;;;;5094957;28;20035;-82
2022/01/11 09:21:37;;;;;;;11.18;4.55;;;-7.70;82.10;;;;;;5095378;28;20473;-84
2022/01/11 09:24:03;;;;;;;18.38;3.75;;;-7.70;82.70;;;;;;5095865;28;20042;-83
2022/01/11 09:26:30;;;;;;;9.30;4.18;;;-7.70;83.50;;;;;;5093857;28;20020;-85
2022/01/11 09:28:56;;;;;;;8.57;3.78;;;-7.70;83.70;;;;;;5075661;28;20035;-84
2022/01/11 09:31:22;;;;;;;6.25;3.45;;;-7.60;84.50;;;;;;5083246;28;20469;-84
2022/01/11 09:33:49;;;;;;;10.68;4.03;;;-7.60;82.70;;;;;;5095796;28;20031;-82
2022/01/11 09:36:16;;;;;;;6.75;3.88;;;-7.70;81.40;;;;;;5096133;28;20092;-82
2022/01/11 09:38:41;;;;;;;7.18;3.75;;;-7.80;81.30;;;;;;5098357;28;20031;-82
2022/01/11 09:41:09;;;;;;;7.60;4.32;;;-7.90;80.90;;;;;;5097408;28;20469;-83
2022/01/11 09:43:34;;;;;;;9.07;4.82;;;-7.90;82.30;;;;;;5094892;28;20589;-84
2022/01/11 09:46:00;;;;;;;7.30;3.35;;;-8.00;81.60;;;;;;5074214;28;20044;-83
2022/01/11 09:48:29;;;;;;;9.23;4.15;;;-8.10;80.80;;;;;;5076884;28;20032;-83
2022/01/11 09:50:56;;;;;;;12.32;5.80;;;-8.20;81.10;;;;;;5096026;28;20052;-83
2022/01/11 09:53:22;;;;;;;8.60;3.40;;;-8.20;81.40;;;;;;5095791;28;20481;-83
2022/01/11 09:55:49;;;;;;;8.80;4.55;;;-8.20;81.80;;;;;;5094978;28;20103;-84
2022/01/11 09:58:15;;;;;;;5.07;3.15;;;-8.30;81.90;;;;;;5094215;28;20036;-83
2022/01/11 10:00:41;;;;;;;7.00;4.63;;;-8.30;83.10;;;;;;5082057;28;20478;-84
2022/01/11 10:03:08;;;;;;;6.38;4.50;;;-8.30;82.30;;;;;;5073868;28;20029;-84
2022/01/11 10:05:36;;;;;;;12.25;6.03;;;-8.30;82.80;;;;;;5074153;28;20024;-85
2022/01/11 10:08:19;;;;;;;21.88;4.50;;;-8.40;81.90;;;;;;5073884;28;20013;-82
2022/01/11 10:10:45;;;;;;;8.35;3.85;;;-8.40;82.30;;;;;;5075010;28;20021;-84
2022/01/11 10:13:35;;;;;;;10.00;3.95;;;-8.40;82.80;;;;;;5074164;28;20036;-84
2022/01/11 10:16:24;;;;;;;5.82;3.40;;;-8.40;82.70;;;;;;5081181;28;20032;-83
2022/01/11 10:18:52;;;;;;;11.63;4.40;;;-8.50;83.00;;;;;;5059387;28;20089;-83
2022/01/11 10:21:36;;;;;;;17.73;5.57;;;-8.50;82.50;;;;;;5076188;28;20044;-83
2022/01/11 10:24:20;;;;;;;5.80;3.78;;;-8.60;81.80;;;;;;5057859;28;20036;-83
2022/01/11 10:26:53;;;;;;;6.63;4.35;;;-8.70;82.50;;;;;;5076878;28;20116;-83
2022/01/11 10:29:37;;;;;;;6.75;3.45;;;-8.70;83.20;;;;;;5079720;28;20036;-82
2022/01/11 10:32:22;;;;;;;5.47;3.60;;;-8.80;82.50;;;;;;5093911;28;20020;-81
2022/01/11 10:34:52;;;;;;;8.98;4.07;;;-8.90;81.90;;;;;;5081251;28;20021;-83
2022/01/11 10:37:30;;;;;;;6.22;4.38;;;-8.90;83.00;;;;;;5081293;28;20031;-83
2022/01/11 10:40:18;;;;;;;8.50;4.78;;;-8.80;83.10;;;;;;5074275;28;20031;-81
2022/01/11 10:42:58;;;;;;;6.28;4.15;;;-8.80;84.10;;;;;;5074200;28;20055;-83
2022/01/11 10:45:35;;;;;;;8.27;4.20;;;-8.70;83.90;;;;;;5084867;28;20040;-83
2022/01/11 10:48:13;;;;;;;5.75;3.53;;;-8.70;83.80;;;;;;5095449;28;20032;-83
2022/01/11 10:50:40;;;;;;;7.20;4.25;;;-8.70;84.80;;;;;;5076716;28;20077;-83
2022/01/11 10:53:16;;;;;;;7.93;4.00;;;-8.70;84.80;;;;;;5096484;28;20020;-85
2022/01/11 10:55:43;;;;;;;6.18;3.20;;;-8.60;84.10;;;;;;5098668;28;20101;-82
2022/01/11 10:58:11;;;;;;;4.88;3.28;;;-8.70;84.10;;;;;;5097582;28;20012;-81
2022/01/11 11:00:43;;;;;;;5.65;3.63;;;-8.60;83.00;;;;;;5111154;28;20024;-84
2022/01/11 11:03:18;;;;;;;7.70;4.25;;;-8.70;83.20;;;;;;5102195;28;20016;-81
2022/01/11 11:05:55;;;;;;;7.68;5.18;;;-8.70;83.60;;;;;;5083472;28;20031;-84
2022/01/11 11:08:27;;;;;;;9.23;3.97;;;-8.70;84.00;;;;;;5102850;28;20024;-83
2022/01/11 11:10:55;;;;;;;10.70;5.32;;;-8.70;82.00;;;;;;5110080;28;20035;-85
2022/01/11 11:13:26;;;;;;;6.88;3.75;;;-8.80;82.90;;;;;;5096878;28;20051;-84
2022/01/11 11:15:55;;;;;;;10.25;3.85;;;-8.80;83.40;;;;;;5096856;28;20034;-84
2022/01/11 11:18:28;;;;;;;8.98;4.15;;;-8.80;83.60;;;;;;5097502;28;20023;-83
2022/01/11 11:20:54;;;;;;;7.18;3.58;;;-8.80;83.00;;;;;;5100285;28;20020;-82
2022/01/11 11:23:21;;;;;;;9.10;4.20;;;-8.90;82.50;;;;;;5098825;28;20600;-83
2022/01/11 11:25:47;;;;;;;13.07;4.35;;;-9.00;81.60;;;;;;5094522;28;20256;-83
2022/01/11 11:28:13;;;;;;;5.18;3.13;;;-9.10;81.90;;;;;;5094205;28;20024;-84
2022/01/11 11:30:39;;;;;;;6.57;4.30;;;-9.10;83.00;;;;;;5095740;28;20034;-85
2022/01/11 11:33:06;;;;;;;8.45;2.80;;;-9.10;82.70;;;;;;5099481;28;20043;-84
2022/01/11 11:35:33;;;;;;;5.75;3.70;;;-9.20;82.30;;;;;;5103505;28;20020;-83
2022/01/11 11:38:02;;;;;;;7.88;4.40;;;-9.30;83.00;;;;;;5086544;28;20035;-83
2022/01/11 11:40:30;;;;;;;8.05;4.78;;;-9.30;83.40;;;;;;5081770;28;20033;-84
2022/01/11 11:42:59;;;;;;;5.70;3.78;;;-9.40;83.20;;;;;;5059112;28;20056;-82
2022/01/11 11:45:31;;;;;;;5.82;3.30;;;-9.40;83.50;;;;;;5088648;28;20039;-84
2022/01/11 11:48:08;;;;;;;5.30;3.58;;;-9.40;83.60;;;;;;5097554;28;20020;-84
2022/01/11 11:50:45;;;;;;;8.45;4.85;;;-9.50;83.90;;;;;;5096993;28;20231;-85
2022/01/11 11:53:39;;;;;;;6.13;3.15;;;-9.50;83.00;;;;;;5090591;28;20032;-83
2022/01/11 11:56:21;;;;;;;7.68;3.97;;;-9.60;82.90;;;;;;5077314;28;20021;-82
2022/01/11 11:58:55;;;;;;;8.35;3.85;;;-9.70;82.80;;;;;;5076847;28;20019;-81
2022/01/11 12:01:42;;;;;;;5.28;3.55;;;-9.80;83.60;;;;;;5076694;28;20039;-84
2022/01/11 12:04:36;;;;;;;12.20;8.38;;;-9.80;84.20;;;;;;5077821;28;20029;-85
2022/01/11 12:07:43;;;;;;;8.07;3.28;;;-9.80;84.30;;;;;;5059019;28;20032;-83
2022/01/11 12:10:17;;;;;;;6.43;3.42;;;-9.80;84.60;;;;;;5037187;28;20040;-83
2022/01/11 12:12:52;;;;;;;8.63;4.00;;;-9.80;85.10;;;;;;5059011;28;20111;-86
2022/01/11 12:15:34;;;;;;;8.20;4.93;;;-9.80;85.80;;;;;;5076782;28;20512;-83
2022/01/11 12:17:59;;;;;;;6.28;3.63;;;-9.80;84.80;;;;;;5077060;28;20022;-86
2022/01/11 12:20:48;;;;;;;6.32;4.28;;;-9.80;85.10;;;;;;5076268;28;20083;-83
2022/01/11 12:23:38;;;;;;;5.78;3.45;;;-9.80;84.40;;;;;;5077981;28;20050;-84
2022/01/11 12:26:16;;;;;;;5.43;3.47;;;-9.90;84.30;;;;;;5076152;28;20082;-84
2022/01/11 12:28:46;;;;;;;9.15;4.63;;;-9.90;85.40;;;;;;5095338;28;20024;-84
2022/01/11 12:31:30;;;;;;;8.73;4.15;;;-9.90;85.90;;;;;;5102277;28;20020;-84
2022/01/11 12:33:56;;;;;;;6.50;3.92;;;-9.90;85.30;;;;;;5099882;28;20032;-82
2022/01/11 12:36:23;;;;;;;6.93;3.20;;;-9.80;85.50;;;;;;5098168;28;20132;-84
2022/01/11 12:39:05;;;;;;;4.60;2.72;;;-9.90;85.80;;;;;;5100777;28;20035;-83
2022/01/11 12:41:37;;;;;;;5.53;3.25;;;-9.90;86.10;;;;;;5102210;28;20049;-85
2022/01/11 12:45:35;;;;;;;7.35;3.70;;;-9.80;86.20;;;;;;5095546;28;20055;-85
2022/01/11 12:47:11;;;;;;;3.73;2.93;;;-9.80;86.90;;;;;;5094950;28;20028;-85
2022/01/11 12:49:44;;;;;;;5.60;2.90;;;-9.70;86.70;;;;;;5080001;28;20038;-83
2022/01/11 12:52:12;;;;;;;7.82;3.50;;;-9.80;86.60;;;;;;5099493;28;20024;-85